KSXS

Shell AHP Heliport

Fort Rucker, Alabama, USA
METAR KSXS 160036Z AUTO 23003KT 10SM OVC034 11/09 A3005 RMK AO2 PRESRR SLP178
Observed Flight Rules
Dec-16 @ 00:36 UTC (39 minutes ago) Visual Flight Rules
Wind Visibility Clouds
230° at 3 knots 10 miles
  • Overcast at 3,400' AGL
Temperatures Readings
Current 11°C / 52°F
Dewpoint 9°C / 48°F
Humidity 88%
Altimeter 30.05" Hg
Pressure 1017.8 hPa
Elevation 122
METAR KSXS 160036Z AUTO 23003KT 10SM OVC034 11/09 A3005 RMK AO2 PRESRR SLP178
Observed Flight Rules
Dec-16 @ 00:36 UTC
(39 minutes ago)
VFR
Wind Visibility
230° at 3 knots 10 miles
Clouds
  • Overcast at 3,400' AGL
Temperature Dewpoint
11°C / 52°F 9°C / 48°F
Humidity Altimeter Pressure
88% 30.05" Hg 1017.8 hPa